sensor_id;sensor_type;location;lat;lon;timestamp;temperature;humidity
63299;DHT22;54535;52.138;5.398;2022-11-03T00:01:39;12.90;95.80
63299;DHT22;54535;52.138;5.398;2022-11-03T00:04:07;12.90;95.70
63299;DHT22;54535;52.138;5.398;2022-11-03T00:06:34;12.90;95.60
63299;DHT22;54535;52.138;5.398;2022-11-03T00:09:02;12.80;95.80
63299;DHT22;54535;52.138;5.398;2022-11-03T00:11:30;12.80;95.80
63299;DHT22;54535;52.138;5.398;2022-11-03T00:13:57;12.80;95.90
63299;DHT22;54535;52.138;5.398;2022-11-03T00:16:24;12.80;95.90
63299;DHT22;54535;52.138;5.398;2022-11-03T00:18:51;12.70;96.10
63299;DHT22;54535;52.138;5.398;2022-11-03T00:21:18;12.70;96.20
63299;DHT22;54535;52.138;5.398;2022-11-03T00:23:45;12.70;96.20
63299;DHT22;54535;52.138;5.398;2022-11-03T00:26:21;12.70;96.00
63299;DHT22;54535;52.138;5.398;2022-11-03T00:28:49;12.70;96.00
63299;DHT22;54535;52.138;5.398;2022-11-03T00:31:17;12.70;96.00
63299;DHT22;54535;52.138;5.398;2022-11-03T00:33:44;12.70;96.20
63299;DHT22;54535;52.138;5.398;2022-11-03T00:36:15;12.70;96.20
63299;DHT22;54535;52.138;5.398;2022-11-03T00:38:42;12.70;96.30
63299;DHT22;54535;52.138;5.398;2022-11-03T00:41:09;12.60;96.20
63299;DHT22;54535;52.138;5.398;2022-11-03T00:43:36;12.60;96.30
63299;DHT22;54535;52.138;5.398;2022-11-03T00:46:03;12.70;96.20
63299;DHT22;54535;52.138;5.398;2022-11-03T00:48:31;12.70;96.30
63299;DHT22;54535;52.138;5.398;2022-11-03T00:53:35;12.60;96.20
63299;DHT22;54535;52.138;5.398;2022-11-03T00:56:03;12.60;96.20
63299;DHT22;54535;52.138;5.398;2022-11-03T00:58:30;12.70;96.50
63299;DHT22;54535;52.138;5.398;2022-11-03T01:00:58;12.70;96.30
63299;DHT22;54535;52.138;5.398;2022-11-03T01:03:25;12.70;96.30
63299;DHT22;54535;52.138;5.398;2022-11-03T01:05:52;12.70;96.20
63299;DHT22;54535;52.138;5.398;2022-11-03T01:08:37;12.80;96.20
63299;DHT22;54535;52.138;5.398;2022-11-03T01:11:04;12.70;96.20
63299;DHT22;54535;52.138;5.398;2022-11-03T01:13:50;12.80;96.20
63299;DHT22;54535;52.138;5.398;2022-11-03T01:16:16;12.80;96.20
63299;DHT22;54535;52.138;5.398;2022-11-03T01:18:43;12.80;96.20
63299;DHT22;54535;52.138;5.398;2022-11-03T01:21:10;12.80;96.20
63299;DHT22;54535;52.138;5.398;2022-11-03T01:23:36;12.80;96.20
63299;DHT22;54535;52.138;5.398;2022-11-03T01:26:04;12.80;96.20
63299;DHT22;54535;52.138;5.398;2022-11-03T01:28:34;12.80;96.30
63299;DHT22;54535;52.138;5.398;2022-11-03T01:31:08;12.80;96.30
63299;DHT22;54535;52.138;5.398;2022-11-03T01:33:35;12.90;96.40
63299;DHT22;54535;52.138;5.398;2022-11-03T01:36:01;12.90;96.50
63299;DHT22;54535;52.138;5.398;2022-11-03T01:38:32;12.90;96.50
63299;DHT22;54535;52.138;5.398;2022-11-03T01:40:59;12.90;96.60
63299;DHT22;54535;52.138;5.398;2022-11-03T01:43:26;12.90;96.70
63299;DHT22;54535;52.138;5.398;2022-11-03T01:45:58;12.90;96.70
63299;DHT22;54535;52.138;5.398;2022-11-03T01:48:27;12.90;96.70
63299;DHT22;54535;52.138;5.398;2022-11-03T01:50:56;12.90;96.70
63299;DHT22;54535;52.138;5.398;2022-11-03T01:53:23;12.90;96.80
63299;DHT22;54535;52.138;5.398;2022-11-03T01:55:49;12.90;96.90
63299;DHT22;54535;52.138;5.398;2022-11-03T01:58:23;12.90;97.00
63299;DHT22;54535;52.138;5.398;2022-11-03T02:00:51;12.80;97.00
63299;DHT22;54535;52.138;5.398;2022-11-03T02:03:19;12.90;97.20
63299;DHT22;54535;52.138;5.398;2022-11-03T02:05:46;12.90;97.20
63299;DHT22;54535;52.138;5.398;2022-11-03T02:08:21;12.80;97.30
63299;DHT22;54535;52.138;5.398;2022-11-03T02:10:49;12.80;97.20
63299;DHT22;54535;52.138;5.398;2022-11-03T02:13:18;12.80;97.40
63299;DHT22;54535;52.138;5.398;2022-11-03T02:15:49;12.80;97.40
63299;DHT22;54535;52.138;5.398;2022-11-03T02:18:17;12.80;97.40
63299;DHT22;54535;52.138;5.398;2022-11-03T02:20:45;12.80;97.50
63299;DHT22;54535;52.138;5.398;2022-11-03T02:25:51;12.80;97.30
63299;DHT22;54535;52.138;5.398;2022-11-03T02:28:19;12.80;97.70
63299;DHT22;54535;52.138;5.398;2022-11-03T02:33:42;12.80;97.50
63299;DHT22;54535;52.138;5.398;2022-11-03T02:38:57;12.80;97.70
63299;DHT22;54535;52.138;5.398;2022-11-03T02:41:26;12.80;97.90
63299;DHT22;54535;52.138;5.398;2022-11-03T02:43:54;12.80;97.90
63299;DHT22;54535;52.138;5.398;2022-11-03T02:46:21;12.80;98.00
63299;DHT22;54535;52.138;5.398;2022-11-03T02:48:49;12.80;97.90
63299;DHT22;54535;52.138;5.398;2022-11-03T02:51:16;12.80;97.90
63299;DHT22;54535;52.138;5.398;2022-11-03T02:53:45;12.90;97.80
63299;DHT22;54535;52.138;5.398;2022-11-03T02:56:15;12.90;97.90
63299;DHT22;54535;52.138;5.398;2022-11-03T02:58:48;12.90;97.90
63299;DHT22;54535;52.138;5.398;2022-11-03T03:01:26;12.90;98.00
63299;DHT22;54535;52.138;5.398;2022-11-03T03:03:58;12.90;98.10
63299;DHT22;54535;52.138;5.398;2022-11-03T03:06:27;12.90;98.10
63299;DHT22;54535;52.138;5.398;2022-11-03T03:08:57;12.90;98.10
63299;DHT22;54535;52.138;5.398;2022-11-03T03:11:24;12.90;98.30
63299;DHT22;54535;52.138;5.398;2022-11-03T03:16:31;12.90;98.40
63299;DHT22;54535;52.138;5.398;2022-11-03T03:19:45;12.80;98.30
63299;DHT22;54535;52.138;5.398;2022-11-03T03:21:51;12.90;98.40
63299;DHT22;54535;52.138;5.398;2022-11-03T03:24:24;12.90;98.50
63299;DHT22;54535;52.138;5.398;2022-11-03T03:26:53;12.90;98.50
63299;DHT22;54535;52.138;5.398;2022-11-03T03:29:26;12.90;98.60
63299;DHT22;54535;52.138;5.398;2022-11-03T03:31:54;12.90;98.50
63299;DHT22;54535;52.138;5.398;2022-11-03T03:34:23;12.90;98.60
63299;DHT22;54535;52.138;5.398;2022-11-03T03:37:01;13.00;98.50
63299;DHT22;54535;52.138;5.398;2022-11-03T03:39:29;13.00;98.40
63299;DHT22;54535;52.138;5.398;2022-11-03T03:41:57;13.00;98.70
63299;DHT22;54535;52.138;5.398;2022-11-03T03:44:24;13.00;98.70
63299;DHT22;54535;52.138;5.398;2022-11-03T03:46:54;13.00;98.60
63299;DHT22;54535;52.138;5.398;2022-11-03T03:49:22;13.00;98.70
63299;DHT22;54535;52.138;5.398;2022-11-03T03:51:48;13.10;98.80
63299;DHT22;54535;52.138;5.398;2022-11-03T03:54:16;13.00;98.70
63299;DHT22;54535;52.138;5.398;2022-11-03T03:56:45;13.00;98.80
63299;DHT22;54535;52.138;5.398;2022-11-03T03:59:13;13.00;98.90
63299;DHT22;54535;52.138;5.398;2022-11-03T04:01:40;13.00;98.80
63299;DHT22;54535;52.138;5.398;2022-11-03T04:04:07;13.00;98.90
63299;DHT22;54535;52.138;5.398;2022-11-03T04:06:34;13.10;98.80
63299;DHT22;54535;52.138;5.398;2022-11-03T04:09:00;13.10;98.90
63299;DHT22;54535;52.138;5.398;2022-11-03T04:11:27;13.10;98.80
63299;DHT22;54535;52.138;5.398;2022-11-03T04:14:12;13.20;98.80
63299;DHT22;54535;52.138;5.398;2022-11-03T04:16:58;13.20;98.80
63299;DHT22;54535;52.138;5.398;2022-11-03T04:19:43;13.10;98.90
63299;DHT22;54535;52.138;5.398;2022-11-03T04:22:42;13.10;98.90
63299;DHT22;54535;52.138;5.398;2022-11-03T04:25:09;13.20;99.00
63299;DHT22;54535;52.138;5.398;2022-11-03T04:27:36;13.20;98.90
63299;DHT22;54535;52.138;5.398;2022-11-03T04:30:20;13.20;98.80
63299;DHT22;54535;52.138;5.398;2022-11-03T04:32:50;13.20;99.00
63299;DHT22;54535;52.138;5.398;2022-11-03T04:37:47;13.20;99.00
63299;DHT22;54535;52.138;5.398;2022-11-03T04:40:16;13.10;99.10
63299;DHT22;54535;52.138;5.398;2022-11-03T04:42:43;13.10;99.00
63299;DHT22;54535;52.138;5.398;2022-11-03T04:45:12;13.10;99.00
63299;DHT22;54535;52.138;5.398;2022-11-03T04:47:39;13.10;99.10
63299;DHT22;54535;52.138;5.398;2022-11-03T04:50:09;13.10;99.00
63299;DHT22;54535;52.138;5.398;2022-11-03T04:52:40;13.10;99.00
63299;DHT22;54535;52.138;5.398;2022-11-03T04:55:09;13.10;99.10
63299;DHT22;54535;52.138;5.398;2022-11-03T04:57:38;13.10;99.20
63299;DHT22;54535;52.138;5.398;2022-11-03T05:00:06;13.10;99.20
63299;DHT22;54535;52.138;5.398;2022-11-03T05:02:33;13.10;99.10
63299;DHT22;54535;52.138;5.398;2022-11-03T05:04:59;13.00;99.10
63299;DHT22;54535;52.138;5.398;2022-11-03T05:07:33;13.10;99.30
63299;DHT22;54535;52.138;5.398;2022-11-03T05:10:01;13.10;99.50
63299;DHT22;54535;52.138;5.398;2022-11-03T05:12:28;13.00;99.30
63299;DHT22;54535;52.138;5.398;2022-11-03T05:14:55;13.00;99.40
63299;DHT22;54535;52.138;5.398;2022-11-03T05:17:25;13.00;99.40
63299;DHT22;54535;52.138;5.398;2022-11-03T05:19:56;13.00;99.50
63299;DHT22;54535;52.138;5.398;2022-11-03T05:22:24;13.00;99.50
63299;DHT22;54535;52.138;5.398;2022-11-03T05:24:59;13.00;99.50
63299;DHT22;54535;52.138;5.398;2022-11-03T05:27:26;13.00;99.30
63299;DHT22;54535;52.138;5.398;2022-11-03T05:29:52;13.00;99.50
63299;DHT22;54535;52.138;5.398;2022-11-03T05:32:29;13.00;99.60
63299;DHT22;54535;52.138;5.398;2022-11-03T05:34:56;13.00;99.80
63299;DHT22;54535;52.138;5.398;2022-11-03T05:37:25;13.00;99.80
63299;DHT22;54535;52.138;5.398;2022-11-03T05:39:54;13.00;99.90
63299;DHT22;54535;52.138;5.398;2022-11-03T05:44:48;13.00;99.70
63299;DHT22;54535;52.138;5.398;2022-11-03T05:47:26;13.00;99.70
63299;DHT22;54535;52.138;5.398;2022-11-03T05:49:58;13.00;99.90
63299;DHT22;54535;52.138;5.398;2022-11-03T05:52:26;13.10;99.80
63299;DHT22;54535;52.138;5.398;2022-11-03T05:54:53;13.10;99.90
63299;DHT22;54535;52.138;5.398;2022-11-03T05:57:23;13.10;99.90
63299;DHT22;54535;52.138;5.398;2022-11-03T05:59:51;13.00;99.90
63299;DHT22;54535;52.138;5.398;2022-11-03T06:02:40;13.10;99.90
63299;DHT22;54535;52.138;5.398;2022-11-03T06:05:17;13.10;99.90
63299;DHT22;54535;52.138;5.398;2022-11-03T06:07:45;13.10;99.90
63299;DHT22;54535;52.138;5.398;2022-11-03T06:10:20;13.10;99.90
63299;DHT22;54535;52.138;5.398;2022-11-03T06:12:48;13.10;99.90
63299;DHT22;54535;52.138;5.398;2022-11-03T06:15:29;13.10;99.90
63299;DHT22;54535;52.138;5.398;2022-11-03T06:17:56;13.10;99.90
63299;DHT22;54535;52.138;5.398;2022-11-03T06:20:22;13.00;99.90
63299;DHT22;54535;52.138;5.398;2022-11-03T06:22:50;13.00;99.90
63299;DHT22;54535;52.138;5.398;2022-11-03T06:25:21;13.10;99.90
63299;DHT22;54535;52.138;5.398;2022-11-03T06:27:48;13.10;99.90
63299;DHT22;54535;52.138;5.398;2022-11-03T06:30:19;13.00;99.90
63299;DHT22;54535;52.138;5.398;2022-11-03T06:32:46;13.10;99.90
63299;DHT22;54535;52.138;5.398;2022-11-03T06:35:13;13.10;99.90
63299;DHT22;54535;52.138;5.398;2022-11-03T06:37:40;13.10;99.90
63299;DHT22;54535;52.138;5.398;2022-11-03T06:42:40;13.20;99.90
63299;DHT22;54535;52.138;5.398;2022-11-03T06:45:12;13.20;99.90
63299;DHT22;54535;52.138;5.398;2022-11-03T06:47:39;13.20;99.90
63299;DHT22;54535;52.138;5.398;2022-11-03T06:50:16;13.20;99.90
63299;DHT22;54535;52.138;5.398;2022-11-03T06:52:45;13.20;99.90
63299;DHT22;54535;52.138;5.398;2022-11-03T06:57:45;13.20;99.90
63299;DHT22;54535;52.138;5.398;2022-11-03T07:05:34;13.20;99.90
63299;DHT22;54535;52.138;5.398;2022-11-03T07:08:03;13.20;99.90
63299;DHT22;54535;52.138;5.398;2022-11-03T07:10:36;13.20;99.90
63299;DHT22;54535;52.138;5.398;2022-11-03T07:13:09;13.20;99.90
63299;DHT22;54535;52.138;5.398;2022-11-03T07:15:39;13.20;99.90
63299;DHT22;54535;52.138;5.398;2022-11-03T07:18:15;13.30;99.90
63299;DHT22;54535;52.138;5.398;2022-11-03T07:20:45;13.40;99.90
63299;DHT22;54535;52.138;5.398;2022-11-03T07:23:14;13.40;99.90
63299;DHT22;54535;52.138;5.398;2022-11-03T07:25:43;13.40;99.90
63299;DHT22;54535;52.138;5.398;2022-11-03T07:28:11;13.40;99.90
63299;DHT22;54535;52.138;5.398;2022-11-03T07:30:38;13.40;99.90
63299;DHT22;54535;52.138;5.398;2022-11-03T07:33:10;13.40;99.90
63299;DHT22;54535;52.138;5.398;2022-11-03T07:35:41;13.40;99.90
63299;DHT22;54535;52.138;5.398;2022-11-03T07:38:29;13.40;99.90
63299;DHT22;54535;52.138;5.398;2022-11-03T07:40:58;13.40;99.90
63299;DHT22;54535;52.138;5.398;2022-11-03T07:43:34;13.40;99.90
63299;DHT22;54535;52.138;5.398;2022-11-03T07:46:04;13.40;99.90
63299;DHT22;54535;52.138;5.398;2022-11-03T07:48:47;13.40;99.90
63299;DHT22;54535;52.138;5.398;2022-11-03T07:51:28;13.40;99.90
63299;DHT22;54535;52.138;5.398;2022-11-03T07:53:57;13.50;99.90
63299;DHT22;54535;52.138;5.398;2022-11-03T07:59:34;13.50;99.90
63299;DHT22;54535;52.138;5.398;2022-11-03T08:02:10;13.50;99.90
63299;DHT22;54535;52.138;5.398;2022-11-03T08:04:41;13.50;99.90
63299;DHT22;54535;52.138;5.398;2022-11-03T08:07:08;13.50;99.90
63299;DHT22;54535;52.138;5.398;2022-11-03T08:09:35;13.50;99.90
63299;DHT22;54535;52.138;5.398;2022-11-03T08:12:02;13.60;99.90
63299;DHT22;54535;52.138;5.398;2022-11-03T08:14:29;13.60;99.90
63299;DHT22;54535;52.138;5.398;2022-11-03T08:16:57;13.60;99.90
63299;DHT22;54535;52.138;5.398;2022-11-03T08:19:24;13.60;99.90
63299;DHT22;54535;52.138;5.398;2022-11-03T08:21:50;13.70;99.90
63299;DHT22;54535;52.138;5.398;2022-11-03T08:24:17;13.70;99.90
63299;DHT22;54535;52.138;5.398;2022-11-03T08:26:44;13.70;99.90
63299;DHT22;54535;52.138;5.398;2022-11-03T08:29:11;13.70;99.90
63299;DHT22;54535;52.138;5.398;2022-11-03T08:31:41;13.80;99.90
63299;DHT22;54535;52.138;5.398;2022-11-03T08:34:08;13.80;99.90
63299;DHT22;54535;52.138;5.398;2022-11-03T08:36:35;13.80;99.90
63299;DHT22;54535;52.138;5.398;2022-11-03T08:39:03;13.80;99.90
63299;DHT22;54535;52.138;5.398;2022-11-03T08:41:30;13.80;99.90
63299;DHT22;54535;52.138;5.398;2022-11-03T08:43:57;13.80;99.90
63299;DHT22;54535;52.138;5.398;2022-11-03T08:46:24;13.80;99.90
63299;DHT22;54535;52.138;5.398;2022-11-03T08:48:51;13.90;99.90
63299;DHT22;54535;52.138;5.398;2022-11-03T08:51:19;13.90;99.90
63299;DHT22;54535;52.138;5.398;2022-11-03T08:53:46;13.90;99.90
63299;DHT22;54535;52.138;5.398;2022-11-03T08:56:16;14.00;99.90
63299;DHT22;54535;52.138;5.398;2022-11-03T08:58:47;14.00;99.90
63299;DHT22;54535;52.138;5.398;2022-11-03T09:01:15;14.00;99.90
63299;DHT22;54535;52.138;5.398;2022-11-03T09:03:42;14.00;99.90
63299;DHT22;54535;52.138;5.398;2022-11-03T09:06:09;14.10;99.90
63299;DHT22;54535;52.138;5.398;2022-11-03T09:08:36;14.10;99.90
63299;DHT22;54535;52.138;5.398;2022-11-03T09:11:24;14.20;99.90
63299;DHT22;54535;52.138;5.398;2022-11-03T09:13:51;14.20;99.80
63299;DHT22;54535;52.138;5.398;2022-11-03T09:16:18;14.20;99.70
63299;DHT22;54535;52.138;5.398;2022-11-03T09:18:45;14.20;99.60
63299;DHT22;54535;52.138;5.398;2022-11-03T09:21:12;14.20;99.40
63299;DHT22;54535;52.138;5.398;2022-11-03T09:23:40;14.20;99.40
63299;DHT22;54535;52.138;5.398;2022-11-03T09:26:07;14.30;99.50
63299;DHT22;54535;52.138;5.398;2022-11-03T09:28:34;14.40;99.40
63299;DHT22;54535;52.138;5.398;2022-11-03T09:31:01;14.40;99.00
63299;DHT22;54535;52.138;5.398;2022-11-03T09:33:28;14.50;98.90
63299;DHT22;54535;52.138;5.398;2022-11-03T09:35:55;14.60;98.70
63299;DHT22;54535;52.138;5.398;2022-11-03T09:38:22;14.60;98.60
63299;DHT22;54535;52.138;5.398;2022-11-03T09:40:49;14.60;98.50
63299;DHT22;54535;52.138;5.398;2022-11-03T09:43:17;14.60;98.50
63299;DHT22;54535;52.138;5.398;2022-11-03T09:45:44;14.60;98.40
63299;DHT22;54535;52.138;5.398;2022-11-03T09:48:11;14.60;98.30
63299;DHT22;54535;52.138;5.398;2022-11-03T09:50:38;14.60;98.20
63299;DHT22;54535;52.138;5.398;2022-11-03T09:53:07;14.60;98.40
63299;DHT22;54535;52.138;5.398;2022-11-03T09:55:35;14.70;98.10
63299;DHT22;54535;52.138;5.398;2022-11-03T09:58:08;14.80;98.40
63299;DHT22;54535;52.138;5.398;2022-11-03T10:00:36;14.90;98.40
63299;DHT22;54535;52.138;5.398;2022-11-03T10:03:03;14.90;97.80
63299;DHT22;54535;52.138;5.398;2022-11-03T10:05:31;15.00;98.00
63299;DHT22;54535;52.138;5.398;2022-11-03T10:08:02;15.00;97.60
63299;DHT22;54535;52.138;5.398;2022-11-03T10:10:30;15.10;97.60
63299;DHT22;54535;52.138;5.398;2022-11-03T10:12:57;15.00;97.30
63299;DHT22;54535;52.138;5.398;2022-11-03T10:15:25;15.00;97.50
63299;DHT22;54535;52.138;5.398;2022-11-03T10:17:52;15.00;97.30
63299;DHT22;54535;52.138;5.398;2022-11-03T10:20:20;15.00;97.40
63299;DHT22;54535;52.138;5.398;2022-11-03T10:22:49;14.90;97.10
63299;DHT22;54535;52.138;5.398;2022-11-03T10:30:51;15.00;97.10
63299;DHT22;54535;52.138;5.398;2022-11-03T10:33:39;15.00;97.20
63299;DHT22;54535;52.138;5.398;2022-11-03T10:36:21;15.00;97.10
63299;DHT22;54535;52.138;5.398;2022-11-03T10:38:48;15.00;97.00
63299;DHT22;54535;52.138;5.398;2022-11-03T10:41:16;15.10;97.00
63299;DHT22;54535;52.138;5.398;2022-11-03T10:43:44;15.10;97.00
63299;DHT22;54535;52.138;5.398;2022-11-03T10:46:21;15.10;96.60
63299;DHT22;54535;52.138;5.398;2022-11-03T10:51:36;15.10;96.50
63299;DHT22;54535;52.138;5.398;2022-11-03T10:54:04;15.10;96.70
63299;DHT22;54535;52.138;5.398;2022-11-03T10:56:31;15.10;96.60
63299;DHT22;54535;52.138;5.398;2022-11-03T10:58:59;15.00;96.30
63299;DHT22;54535;52.138;5.398;2022-11-03T11:01:26;15.10;96.40
63299;DHT22;54535;52.138;5.398;2022-11-03T11:03:54;15.10;96.40
63299;DHT22;54535;52.138;5.398;2022-11-03T11:06:27;15.10;96.20
63299;DHT22;54535;52.138;5.398;2022-11-03T11:09:03;15.10;96.50
63299;DHT22;54535;52.138;5.398;2022-11-03T11:11:30;15.10;96.40
63299;DHT22;54535;52.138;5.398;2022-11-03T11:14:19;15.20;96.20
63299;DHT22;54535;52.138;5.398;2022-11-03T11:16:47;15.20;96.20
63299;DHT22;54535;52.138;5.398;2022-11-03T11:19:15;15.20;96.50
63299;DHT22;54535;52.138;5.398;2022-11-03T11:24:10;15.20;96.00
63299;DHT22;54535;52.138;5.398;2022-11-03T11:26:37;15.20;96.00
63299;DHT22;54535;52.138;5.398;2022-11-03T11:31:35;15.30;95.90
63299;DHT22;54535;52.138;5.398;2022-11-03T11:36:36;15.40;95.70
63299;DHT22;54535;52.138;5.398;2022-11-03T11:39:07;15.30;95.60
63299;DHT22;54535;52.138;5.398;2022-11-03T11:52:28;15.60;95.10
63299;DHT22;54535;52.138;5.398;2022-11-03T11:54:55;15.60;95.10
63299;DHT22;54535;52.138;5.398;2022-11-03T11:57:23;15.60;95.10
63299;DHT22;54535;52.138;5.398;2022-11-03T11:59:49;15.60;95.20
63299;DHT22;54535;52.138;5.398;2022-11-03T12:02:18;15.70;95.10
63299;DHT22;54535;52.138;5.398;2022-11-03T12:04:45;15.70;94.90
63299;DHT22;54535;52.138;5.398;2022-11-03T12:07:13;15.80;94.50
63299;DHT22;54535;52.138;5.398;2022-11-03T12:09:40;15.90;94.30
63299;DHT22;54535;52.138;5.398;2022-11-03T12:12:07;16.00;93.90
63299;DHT22;54535;52.138;5.398;2022-11-03T12:14:35;16.10;93.90
63299;DHT22;54535;52.138;5.398;2022-11-03T12:19:48;16.30;93.30
63299;DHT22;54535;52.138;5.398;2022-11-03T12:29:45;16.50;92.90
63299;DHT22;54535;52.138;5.398;2022-11-03T12:32:12;16.60;93.50
63299;DHT22;54535;52.138;5.398;2022-11-03T12:34:58;17.00;92.20
63299;DHT22;54535;52.138;5.398;2022-11-03T12:37:25;17.10;91.50
63299;DHT22;54535;52.138;5.398;2022-11-03T12:39:52;17.30;91.70
63299;DHT22;54535;52.138;5.398;2022-11-03T12:42:20;17.80;92.80
63299;DHT22;54535;52.138;5.398;2022-11-03T12:44:48;18.00;89.90
63299;DHT22;54535;52.138;5.398;2022-11-03T12:47:15;18.30;90.60
63299;DHT22;54535;52.138;5.398;2022-11-03T12:49:42;19.10;90.80
63299;DHT22;54535;52.138;5.398;2022-11-03T12:52:09;19.60;87.30
63299;DHT22;54535;52.138;5.398;2022-11-03T12:54:36;19.90;84.70
63299;DHT22;54535;52.138;5.398;2022-11-03T12:57:05;19.80;84.60
63299;DHT22;54535;52.138;5.398;2022-11-03T12:59:32;19.80;83.10
63299;DHT22;54535;52.138;5.398;2022-11-03T13:01:59;20.10;84.60
63299;DHT22;54535;52.138;5.398;2022-11-03T13:04:26;20.20;82.50
63299;DHT22;54535;52.138;5.398;2022-11-03T13:06:53;21.10;77.80
63299;DHT22;54535;52.138;5.398;2022-11-03T13:09:20;22.00;78.80
63299;DHT22;54535;52.138;5.398;2022-11-03T13:11:47;23.20;79.00
63299;DHT22;54535;52.138;5.398;2022-11-03T13:14:32;23.90;73.50
63299;DHT22;54535;52.138;5.398;2022-11-03T13:16:59;25.30;70.80
63299;DHT22;54535;52.138;5.398;2022-11-03T13:19:29;25.80;56.70
63299;DHT22;54535;52.138;5.398;2022-11-03T13:21:56;25.20;58.10
63299;DHT22;54535;52.138;5.398;2022-11-03T13:24:23;25.00;57.00
63299;DHT22;54535;52.138;5.398;2022-11-03T13:26:50;24.60;59.10
63299;DHT22;54535;52.138;5.398;2022-11-03T13:29:17;24.30;59.10
63299;DHT22;54535;52.138;5.398;2022-11-03T13:31:44;23.80;58.70
63299;DHT22;54535;52.138;5.398;2022-11-03T13:34:11;23.20;59.70
63299;DHT22;54535;52.138;5.398;2022-11-03T13:36:38;22.70;61.10
63299;DHT22;54535;52.138;5.398;2022-11-03T13:39:05;22.30;62.50
63299;DHT22;54535;52.138;5.398;2022-11-03T13:41:32;21.50;64.90
63299;DHT22;54535;52.138;5.398;2022-11-03T13:43:59;21.20;65.80
63299;DHT22;54535;52.138;5.398;2022-11-03T13:46:26;20.80;67.10
63299;DHT22;54535;52.138;5.398;2022-11-03T13:48:53;20.10;70.20
63299;DHT22;54535;52.138;5.398;2022-11-03T13:51:39;19.90;71.10
63299;DHT22;54535;52.138;5.398;2022-11-03T13:54:06;19.40;73.80
63299;DHT22;54535;52.138;5.398;2022-11-03T13:56:53;19.10;74.70
63299;DHT22;54535;52.138;5.398;2022-11-03T13:59:39;18.80;77.80
63299;DHT22;54535;52.138;5.398;2022-11-03T14:02:06;18.30;80.00
63299;DHT22;54535;52.138;5.398;2022-11-03T14:04:53;18.10;81.00
63299;DHT22;54535;52.138;5.398;2022-11-03T14:07:19;17.90;83.00
63299;DHT22;54535;52.138;5.398;2022-11-03T14:09:46;17.70;83.10
63299;DHT22;54535;52.138;5.398;2022-11-03T14:12:13;17.60;84.70
63299;DHT22;54535;52.138;5.398;2022-11-03T14:14:58;17.50;85.40
63299;DHT22;54535;52.138;5.398;2022-11-03T14:17:25;17.50;86.40
63299;DHT22;54535;52.138;5.398;2022-11-03T14:19:52;17.40;86.40
63299;DHT22;54535;52.138;5.398;2022-11-03T14:22:24;17.40;86.40
63299;DHT22;54535;52.138;5.398;2022-11-03T14:24:51;17.30;86.60
63299;DHT22;54535;52.138;5.398;2022-11-03T14:27:18;17.30;87.40
63299;DHT22;54535;52.138;5.398;2022-11-03T14:29:45;17.30;86.80
63299;DHT22;54535;52.138;5.398;2022-11-03T14:32:16;17.20;87.80
63299;DHT22;54535;52.138;5.398;2022-11-03T14:34:42;17.10;88.10
63299;DHT22;54535;52.138;5.398;2022-11-03T14:37:10;17.00;88.50
63299;DHT22;54535;52.138;5.398;2022-11-03T14:39:37;17.10;88.50
63299;DHT22;54535;52.138;5.398;2022-11-03T14:42:09;17.00;88.90
63299;DHT22;54535;52.138;5.398;2022-11-03T14:44:41;17.00;88.80
63299;DHT22;54535;52.138;5.398;2022-11-03T14:47:09;17.00;89.20
63299;DHT22;54535;52.138;5.398;2022-11-03T14:49:36;17.00;89.30
63299;DHT22;54535;52.138;5.398;2022-11-03T14:52:03;16.90;89.60
63299;DHT22;54535;52.138;5.398;2022-11-03T14:54:30;16.90;89.50
63299;DHT22;54535;52.138;5.398;2022-11-03T14:56:57;16.90;89.80
63299;DHT22;54535;52.138;5.398;2022-11-03T14:59:24;17.00;90.00
63299;DHT22;54535;52.138;5.398;2022-11-03T15:01:51;16.90;90.30
63299;DHT22;54535;52.138;5.398;2022-11-03T15:04:19;16.80;90.40
63299;DHT22;54535;52.138;5.398;2022-11-03T15:06:46;16.80;90.20
63299;DHT22;54535;52.138;5.398;2022-11-03T15:09:12;16.80;90.20
63299;DHT22;54535;52.138;5.398;2022-11-03T15:11:40;16.70;90.60
63299;DHT22;54535;52.138;5.398;2022-11-03T15:14:07;16.60;90.90
63299;DHT22;54535;52.138;5.398;2022-11-03T15:16:34;16.60;91.10
63299;DHT22;54535;52.138;5.398;2022-11-03T15:19:02;16.50;91.20
63299;DHT22;54535;52.138;5.398;2022-11-03T15:21:29;16.50;91.20
63299;DHT22;54535;52.138;5.398;2022-11-03T15:23:56;16.50;91.30
63299;DHT22;54535;52.138;5.398;2022-11-03T15:26:42;16.50;91.60
63299;DHT22;54535;52.138;5.398;2022-11-03T15:29:09;16.40;92.00
63299;DHT22;54535;52.138;5.398;2022-11-03T15:31:36;16.20;92.40
63299;DHT22;54535;52.138;5.398;2022-11-03T15:34:02;16.20;92.70
63299;DHT22;54535;52.138;5.398;2022-11-03T15:36:34;16.10;92.90
63299;DHT22;54535;52.138;5.398;2022-11-03T15:39:00;16.00;93.30
63299;DHT22;54535;52.138;5.398;2022-11-03T15:41:27;16.00;92.80
63299;DHT22;54535;52.138;5.398;2022-11-03T15:43:54;16.00;92.90
63299;DHT22;54535;52.138;5.398;2022-11-03T15:46:20;16.00;93.30
63299;DHT22;54535;52.138;5.398;2022-11-03T15:48:47;16.00;93.40
63299;DHT22;54535;52.138;5.398;2022-11-03T15:51:14;16.00;93.40
63299;DHT22;54535;52.138;5.398;2022-11-03T15:53:41;16.00;93.40
63299;DHT22;54535;52.138;5.398;2022-11-03T15:56:09;15.90;93.50
63299;DHT22;54535;52.138;5.398;2022-11-03T15:58:35;15.90;93.90
63299;DHT22;54535;52.138;5.398;2022-11-03T16:01:03;15.90;94.00
63299;DHT22;54535;52.138;5.398;2022-11-03T16:03:30;15.80;94.50
63299;DHT22;54535;52.138;5.398;2022-11-03T16:05:58;15.70;94.50
63299;DHT22;54535;52.138;5.398;2022-11-03T16:08:25;15.70;94.50
63299;DHT22;54535;52.138;5.398;2022-11-03T16:10:51;15.60;94.70
63299;DHT22;54535;52.138;5.398;2022-11-03T16:13:23;15.50;94.90
63299;DHT22;54535;52.138;5.398;2022-11-03T16:15:50;15.50;95.10
63299;DHT22;54535;52.138;5.398;2022-11-03T16:18:18;15.50;95.70
63299;DHT22;54535;52.138;5.398;2022-11-03T16:20:45;15.40;95.60
63299;DHT22;54535;52.138;5.398;2022-11-03T16:23:11;15.40;95.40
63299;DHT22;54535;52.138;5.398;2022-11-03T16:25:38;15.40;95.70
63299;DHT22;54535;52.138;5.398;2022-11-03T16:28:05;15.40;96.10
63299;DHT22;54535;52.138;5.398;2022-11-03T16:30:32;15.30;96.00
63299;DHT22;54535;52.138;5.398;2022-11-03T16:33:00;15.40;96.20
63299;DHT22;54535;52.138;5.398;2022-11-03T16:35:27;15.30;96.60
63299;DHT22;54535;52.138;5.398;2022-11-03T16:37:55;15.10;97.00
63299;DHT22;54535;52.138;5.398;2022-11-03T16:40:21;15.10;96.80
63299;DHT22;54535;52.138;5.398;2022-11-03T16:42:48;15.10;97.60
63299;DHT22;54535;52.138;5.398;2022-11-03T16:45:18;15.00;97.50
63299;DHT22;54535;52.138;5.398;2022-11-03T16:47:46;15.00;97.40
63299;DHT22;54535;52.138;5.398;2022-11-03T16:50:13;15.00;97.40
63299;DHT22;54535;52.138;5.398;2022-11-03T16:52:41;15.10;97.30